Time;durP1;ratioP1;P1;durP2;ratioP2;P2;SDS_P1;SDS_P2;PMS_P1;PMS_P2;Temp;Humidity;BMP_temperature;BMP_pressure;BME280_temperature;BME280_humidity;BME280_pressure;Samples;Min_cycle;Max_cycle;Signal;HPM_P1;HPM_P2
2022/03/19 00:01:30;;;;;;;63.70;33.50;;;;;;;;;;5084674;28;20026;-66
2022/03/19 00:03:56;;;;;;;57.78;29.40;;;;;;;;;;5083629;28;20111;-68
2022/03/19 00:06:21;;;;;;;60.78;31.77;;;;;;;;;;5078262;28;20502;-68
2022/03/19 00:08:46;;;;;;;78.07;40.38;;;;;;;;;;5082360;28;20036;-66
2022/03/19 00:11:12;;;;;;;86.10;42.30;;;;;;;;;;5081396;28;20028;-67
2022/03/19 00:13:37;;;;;;;90.72;44.20;;;;;;;;;;5078196;28;20160;-66
2022/03/19 00:16:03;;;;;;;107.13;53.53;;;;;;;;;;5071085;28;20028;-65
2022/03/19 00:18:28;;;;;;;106.03;51.53;;;;;;;;;;5079464;28;20391;-65
2022/03/19 00:20:54;;;;;;;101.22;53.30;;;;;;;;;;5065782;28;20111;-65
2022/03/19 00:23:19;;;;;;;80.05;44.22;;;;;;;;;;5080140;28;20063;-65
2022/03/19 00:25:44;;;;;;;76.93;42.00;;;;;;;;;;5072659;28;20390;-65
2022/03/19 00:28:10;;;;;;;71.90;38.75;;;;;;;;;;5082187;28;20035;-66
2022/03/19 00:30:35;;;;;;;80.40;42.97;;;;;;;;;;5080196;28;20032;-66
2022/03/19 00:33:00;;;;;;;133.63;63.65;;;;;;;;;;5074355;28;20031;-65
2022/03/19 00:35:26;;;;;;;126.20;63.97;;;;;;;;;;5081569;28;20050;-67
2022/03/19 00:37:53;;;;;;;126.05;59.42;;;;;;;;;;5081566;28;20039;-66
2022/03/19 00:40:19;;;;;;;84.85;39.42;;;;;;;;;;5074781;28;20047;-65
2022/03/19 00:42:44;;;;;;;213.27;81.15;;;;;;;;;;5083444;28;20027;-64
2022/03/19 00:45:11;;;;;;;143.30;65.03;;;;;;;;;;5071824;28;20028;-67
2022/03/19 00:47:37;;;;;;;127.32;55.83;;;;;;;;;;5073285;28;20020;-65
2022/03/19 00:50:03;;;;;;;208.68;88.40;;;;;;;;;;5081995;28;20028;-65
2022/03/19 00:52:30;;;;;;;243.40;105.18;;;;;;;;;;5077463;28;20032;-64
2022/03/19 00:54:55;;;;;;;189.50;86.10;;;;;;;;;;5077199;28;20024;-65
2022/03/19 00:57:20;;;;;;;159.30;69.15;;;;;;;;;;5083450;28;20047;-67
2022/03/19 00:59:46;;;;;;;193.40;78.68;;;;;;;;;;5081145;28;20032;-67
2022/03/19 01:02:11;;;;;;;283.33;100.35;;;;;;;;;;5072691;28;20036;-66
2022/03/19 01:04:37;;;;;;;267.35;109.38;;;;;;;;;;5079937;28;20458;-65
2022/03/19 01:07:03;;;;;;;254.32;108.25;;;;;;;;;;5081411;28;20031;-66
2022/03/19 01:09:28;;;;;;;175.45;79.70;;;;;;;;;;5083482;28;20161;-66
2022/03/19 01:11:54;;;;;;;108.72;51.60;;;;;;;;;;5085511;28;20439;-66
2022/03/19 01:14:19;;;;;;;65.45;29.00;;;;;;;;;;5085160;28;20047;-67
2022/03/19 01:16:44;;;;;;;63.65;31.35;;;;;;;;;;5079201;28;20085;-68
2022/03/19 01:19:10;;;;;;;55.47;28.15;;;;;;;;;;5082072;28;20051;-69
2022/03/19 01:21:35;;;;;;;46.05;24.55;;;;;;;;;;5086973;28;20022;-67
2022/03/19 01:24:02;;;;;;;59.45;29.83;;;;;;;;;;5084864;28;20059;-66
2022/03/19 01:26:27;;;;;;;62.78;31.75;;;;;;;;;;5082148;28;20108;-66
2022/03/19 01:28:52;;;;;;;49.97;24.15;;;;;;;;;;5076651;28;20107;-66
2022/03/19 01:31:19;;;;;;;36.40;18.00;;;;;;;;;;5085751;28;20028;-66
2022/03/19 01:33:45;;;;;;;35.42;21.67;;;;;;;;;;5081251;28;20031;-67
2022/03/19 01:36:10;;;;;;;44.85;21.95;;;;;;;;;;5083844;28;20024;-66
2022/03/19 01:38:37;;;;;;;41.78;20.70;;;;;;;;;;5086479;28;20032;-64
2022/03/19 01:41:03;;;;;;;41.45;21.02;;;;;;;;;;5083253;28;20342;-65
2022/03/19 01:43:28;;;;;;;47.10;22.80;;;;;;;;;;5084370;28;20036;-64
2022/03/19 01:45:55;;;;;;;47.20;23.67;;;;;;;;;;5085761;28;20486;-64
2022/03/19 01:48:21;;;;;;;47.03;24.45;;;;;;;;;;5077742;28;20764;-66
2022/03/19 01:50:47;;;;;;;84.05;42.58;;;;;;;;;;5066710;28;20039;-66
2022/03/19 01:53:12;;;;;;;74.72;38.55;;;;;;;;;;5089930;28;20451;-64
2022/03/19 01:55:38;;;;;;;67.90;33.22;;;;;;;;;;5084242;28;20020;-66
2022/03/19 01:58:04;;;;;;;49.55;24.55;;;;;;;;;;5084309;28;20023;-65
2022/03/19 02:00:30;;;;;;;51.03;23.77;;;;;;;;;;5084533;28;20035;-67
2022/03/19 02:02:57;;;;;;;63.35;29.65;;;;;;;;;;5077556;28;20351;-65
2022/03/19 02:05:24;;;;;;;64.25;32.95;;;;;;;;;;5083678;28;20036;-65
2022/03/19 02:07:50;;;;;;;71.28;36.13;;;;;;;;;;5084974;28;20046;-66
2022/03/19 02:10:16;;;;;;;65.70;33.22;;;;;;;;;;5075260;28;20032;-65
2022/03/19 02:12:44;;;;;;;62.67;33.40;;;;;;;;;;5067254;28;20043;-65
2022/03/19 02:15:10;;;;;;;62.05;32.33;;;;;;;;;;5065205;28;20451;-66
2022/03/19 02:17:36;;;;;;;63.30;33.45;;;;;;;;;;5072665;28;20024;-65
2022/03/19 02:20:02;;;;;;;92.13;42.38;;;;;;;;;;5083273;28;20046;-65
2022/03/19 02:22:29;;;;;;;104.60;47.42;;;;;;;;;;5081821;28;21032;-67
2022/03/19 02:27:49;;;;;;;101.60;45.50;;;;;;;;;;5084438;28;20067;-69
2022/03/19 02:30:15;;;;;;;115.20;50.40;;;;;;;;;;5053896;28;20064;-66
2022/03/19 02:32:41;;;;;;;81.45;38.63;;;;;;;;;;5056098;28;20074;-69
2022/03/19 02:35:08;;;;;;;58.95;27.67;;;;;;;;;;5072748;28;20112;-68
2022/03/19 02:37:41;;;;;;;62.35;30.23;;;;;;;;;;5084005;28;20028;-65
2022/03/19 02:40:10;;;;;;;64.45;31.70;;;;;;;;;;5083857;28;20043;-68
2022/03/19 02:42:35;;;;;;;66.22;34.00;;;;;;;;;;5084366;28;20024;-67
2022/03/19 02:45:01;;;;;;;55.42;32.47;;;;;;;;;;5085207;28;20024;-67
2022/03/19 02:47:27;;;;;;;52.05;28.60;;;;;;;;;;5077847;28;20039;-67
2022/03/19 02:49:52;;;;;;;47.45;24.98;;;;;;;;;;5080430;28;20024;-65
2022/03/19 02:52:17;;;;;;;43.83;21.23;;;;;;;;;;5077125;28;20111;-66
2022/03/19 02:54:43;;;;;;;38.83;19.75;;;;;;;;;;5081690;28;20034;-65
2022/03/19 02:57:08;;;;;;;37.88;20.17;;;;;;;;;;5082608;28;20024;-64
2022/03/19 02:59:34;;;;;;;42.58;23.70;;;;;;;;;;5082153;28;20035;-64
2022/03/19 03:02:00;;;;;;;40.88;22.95;;;;;;;;;;5080048;28;20381;-67
2022/03/19 03:04:26;;;;;;;39.58;22.48;;;;;;;;;;5075467;28;20028;-64
2022/03/19 03:06:53;;;;;;;38.42;22.02;;;;;;;;;;5075223;28;20127;-68
2022/03/19 03:09:19;;;;;;;42.83;24.77;;;;;;;;;;5084106;28;20088;-65
2022/03/19 03:11:45;;;;;;;86.05;42.10;;;;;;;;;;5082792;28;20078;-67
2022/03/19 03:14:13;;;;;;;101.93;42.90;;;;;;;;;;5085248;28;20091;-65
2022/03/19 03:16:40;;;;;;;73.45;34.80;;;;;;;;;;5067087;28;20032;-64
2022/03/19 03:19:07;;;;;;;64.82;32.88;;;;;;;;;;5084359;28;20034;-66
2022/03/19 03:21:33;;;;;;;130.18;61.50;;;;;;;;;;5082071;28;20115;-68
2022/03/19 03:23:59;;;;;;;439.20;181.88;;;;;;;;;;5068230;28;20120;-63
2022/03/19 03:26:25;;;;;;;310.85;115.95;;;;;;;;;;5082661;28;20107;-63
2022/03/19 03:28:50;;;;;;;143.95;60.95;;;;;;;;;;5082294;28;20031;-63
2022/03/19 03:31:15;;;;;;;75.78;39.80;;;;;;;;;;5084305;28;20039;-64
2022/03/19 03:33:41;;;;;;;50.67;25.73;;;;;;;;;;5080165;28;20034;-64
2022/03/19 03:36:07;;;;;;;37.55;23.23;;;;;;;;;;5078219;28;20016;-65
2022/03/19 03:38:33;;;;;;;34.17;20.35;;;;;;;;;;5083186;28;20096;-64
2022/03/19 03:40:58;;;;;;;33.85;20.40;;;;;;;;;;5063051;28;20040;-65
2022/03/19 03:43:25;;;;;;;31.42;20.13;;;;;;;;;;5084649;28;20035;-66
2022/03/19 03:45:50;;;;;;;34.97;22.33;;;;;;;;;;5085146;28;20028;-66
2022/03/19 03:48:16;;;;;;;35.25;22.38;;;;;;;;;;5081837;28;20020;-67
2022/03/19 03:50:41;;;;;;;29.63;19.40;;;;;;;;;;5083588;28;20034;-68
2022/03/19 03:53:08;;;;;;;33.40;20.73;;;;;;;;;;5081308;28;20032;-67
2022/03/19 03:55:34;;;;;;;51.78;30.23;;;;;;;;;;5085070;28;20030;-66
2022/03/19 03:58:00;;;;;;;125.60;69.55;;;;;;;;;;5065305;28;20103;-67
2022/03/19 04:00:26;;;;;;;169.35;81.93;;;;;;;;;;5080214;28;20413;-67
2022/03/19 04:02:51;;;;;;;87.90;41.72;;;;;;;;;;5081142;28;20031;-68
2022/03/19 04:05:17;;;;;;;99.22;47.50;;;;;;;;;;5081567;28;20427;-67
2022/03/19 04:07:43;;;;;;;45.80;25.00;;;;;;;;;;5082171;28;20020;-68
2022/03/19 04:10:09;;;;;;;67.72;38.00;;;;;;;;;;5081523;28;20451;-66
2022/03/19 04:12:36;;;;;;;61.35;36.30;;;;;;;;;;5065645;28;20043;-65
2022/03/19 04:15:02;;;;;;;43.22;26.33;;;;;;;;;;5082742;28;20418;-67
2022/03/19 04:17:27;;;;;;;44.10;30.08;;;;;;;;;;5082122;28;20060;-66
2022/03/19 04:19:52;;;;;;;47.38;32.38;;;;;;;;;;5082394;28;20052;-68
2022/03/19 04:22:18;;;;;;;55.10;33.55;;;;;;;;;;5081939;28;20444;-67
2022/03/19 04:24:46;;;;;;;89.53;46.60;;;;;;;;;;5082629;28;20047;-66
2022/03/19 04:27:12;;;;;;;105.32;55.17;;;;;;;;;;5063507;28;20024;-68
2022/03/19 04:29:37;;;;;;;96.47;58.95;;;;;;;;;;5082099;28;20405;-66
2022/03/19 04:32:04;;;;;;;83.72;48.92;;;;;;;;;;5072359;28;20032;-65
2022/03/19 04:34:30;;;;;;;85.10;49.88;;;;;;;;;;5071894;28;20047;-67
2022/03/19 04:36:55;;;;;;;74.13;42.63;;;;;;;;;;5075540;28;20024;-66
2022/03/19 04:39:21;;;;;;;65.07;36.55;;;;;;;;;;5081816;28;20013;-66
2022/03/19 04:41:46;;;;;;;75.80;45.45;;;;;;;;;;5082717;28;20028;-67
2022/03/19 04:44:12;;;;;;;68.35;45.33;;;;;;;;;;5072462;28;20103;-66
2022/03/19 04:46:38;;;;;;;80.97;54.85;;;;;;;;;;5085439;28;20067;-66
2022/03/19 04:49:03;;;;;;;64.80;38.78;;;;;;;;;;5086342;28;20040;-65
2022/03/19 04:51:33;;;;;;;66.20;40.08;;;;;;;;;;5084979;28;20066;-64
2022/03/19 04:53:59;;;;;;;98.97;57.65;;;;;;;;;;5087364;28;20047;-65
2022/03/19 04:56:27;;;;;;;82.25;51.25;;;;;;;;;;5074834;28;20067;-65
2022/03/19 04:58:53;;;;;;;89.35;54.17;;;;;;;;;;5084304;28;20020;-65
2022/03/19 05:01:18;;;;;;;86.63;51.47;;;;;;;;;;5086165;28;20016;-66
2022/03/19 05:03:44;;;;;;;77.22;47.35;;;;;;;;;;5084852;28;20035;-65
2022/03/19 05:06:09;;;;;;;66.38;41.25;;;;;;;;;;5086691;28;20024;-66
2022/03/19 05:08:35;;;;;;;57.38;37.13;;;;;;;;;;5086713;28;20320;-64
2022/03/19 05:11:12;;;;;;;80.57;46.85;;;;;;;;;;5079164;28;20020;-65
2022/03/19 05:13:38;;;;;;;79.65;47.63;;;;;;;;;;5082513;28;20127;-65
2022/03/19 05:16:04;;;;;;;82.43;52.10;;;;;;;;;;5081589;28;20115;-67
2022/03/19 05:18:29;;;;;;;93.03;55.63;;;;;;;;;;5076268;28;20119;-66
2022/03/19 05:20:56;;;;;;;120.78;72.43;;;;;;;;;;5074391;28;20034;-67
2022/03/19 05:23:22;;;;;;;133.70;80.07;;;;;;;;;;5072464;28;20031;-65
2022/03/19 05:25:47;;;;;;;146.55;88.50;;;;;;;;;;5077152;28;20347;-65
2022/03/19 05:28:13;;;;;;;154.60;90.35;;;;;;;;;;5075115;28;20425;-66
2022/03/19 05:30:39;;;;;;;161.73;95.13;;;;;;;;;;5076333;28;20012;-66
2022/03/19 05:33:04;;;;;;;161.98;97.32;;;;;;;;;;5063336;28;20086;-64
2022/03/19 05:35:29;;;;;;;151.77;90.57;;;;;;;;;;5076838;28;20471;-66
2022/03/19 05:37:55;;;;;;;111.40;64.82;;;;;;;;;;5075489;28;20357;-65
2022/03/19 05:40:20;;;;;;;104.57;63.40;;;;;;;;;;5070945;28;20027;-65
2022/03/19 05:42:46;;;;;;;258.45;126.57;;;;;;;;;;5075368;28;21201;-68
2022/03/19 05:45:13;;;;;;;350.42;160.05;;;;;;;;;;5083700;28;20031;-66
2022/03/19 05:47:38;;;;;;;485.80;243.73;;;;;;;;;;5085927;28;20380;-66
2022/03/19 05:50:04;;;;;;;546.78;325.73;;;;;;;;;;5083643;28;20032;-66
2022/03/19 05:52:30;;;;;;;382.05;222.40;;;;;;;;;;5083707;28;20020;-65
2022/03/19 05:54:55;;;;;;;264.92;147.80;;;;;;;;;;5085252;28;20349;-66
2022/03/19 05:57:20;;;;;;;169.68;94.50;;;;;;;;;;5083457;28;20031;-68
2022/03/19 05:59:46;;;;;;;166.32;94.97;;;;;;;;;;5085627;28;20027;-66
2022/03/19 06:02:11;;;;;;;145.30;92.43;;;;;;;;;;5078843;28;20043;-65
2022/03/19 06:04:38;;;;;;;141.75;88.90;;;;;;;;;;5073760;28;20067;-68
2022/03/19 06:07:03;;;;;;;121.82;76.63;;;;;;;;;;5072767;28;20050;-66
2022/03/19 06:09:28;;;;;;;118.18;78.30;;;;;;;;;;5071414;28;20020;-67
2022/03/19 06:11:54;;;;;;;129.93;84.10;;;;;;;;;;5058123;28;20047;-68
2022/03/19 06:14:19;;;;;;;124.47;76.50;;;;;;;;;;5072674;28;20052;-65
2022/03/19 06:16:45;;;;;;;101.78;59.22;;;;;;;;;;5074798;28;20434;-68
2022/03/19 06:19:11;;;;;;;106.80;62.60;;;;;;;;;;5070853;28;20026;-66
2022/03/19 06:21:39;;;;;;;81.53;45.78;;;;;;;;;;5075810;28;20104;-66
2022/03/19 06:24:06;;;;;;;47.58;30.27;;;;;;;;;;5084366;28;20031;-65
2022/03/19 06:26:31;;;;;;;58.67;36.22;;;;;;;;;;5074615;28;20026;-65
2022/03/19 06:28:56;;;;;;;61.08;36.80;;;;;;;;;;5085386;28;20032;-65
2022/03/19 06:31:22;;;;;;;46.88;31.52;;;;;;;;;;5071177;28;20024;-66
2022/03/19 06:33:47;;;;;;;59.15;34.53;;;;;;;;;;5070750;28;20493;-66
2022/03/19 06:38:57;;;;;;;46.47;31.33;;;;;;;;;;5077304;28;20047;-68
2022/03/19 06:41:23;;;;;;;37.92;25.98;;;;;;;;;;5083936;28;20028;-66
2022/03/19 06:43:49;;;;;;;45.47;29.13;;;;;;;;;;5083388;28;20036;-65
2022/03/19 06:46:14;;;;;;;97.03;54.42;;;;;;;;;;5084259;28;20077;-67
2022/03/19 06:48:39;;;;;;;173.45;106.65;;;;;;;;;;5084205;28;20145;-64
2022/03/19 06:51:05;;;;;;;109.47;60.97;;;;;;;;;;5083179;28;20031;-67
2022/03/19 06:53:30;;;;;;;78.03;47.47;;;;;;;;;;5073138;28;20032;-65
2022/03/19 06:55:56;;;;;;;61.92;39.53;;;;;;;;;;5072228;28;20028;-68
2022/03/19 06:58:21;;;;;;;88.28;52.30;;;;;;;;;;5084479;28;20031;-67
2022/03/19 07:00:47;;;;;;;78.57;47.58;;;;;;;;;;5083372;28;20174;-68
2022/03/19 07:03:12;;;;;;;415.05;150.73;;;;;;;;;;5073503;28;20024;-65
2022/03/19 07:05:38;;;;;;;205.82;99.88;;;;;;;;;;5077312;28;20156;-63
2022/03/19 07:08:07;;;;;;;151.52;84.43;;;;;;;;;;5075325;28;20024;-70
2022/03/19 07:10:33;;;;;;;162.95;101.55;;;;;;;;;;5061162;28;20027;-65
2022/03/19 07:12:58;;;;;;;206.95;105.13;;;;;;;;;;5072922;28;20040;-65
2022/03/19 07:15:24;;;;;;;129.45;73.80;;;;;;;;;;5083356;28;20339;-68
2022/03/19 07:17:50;;;;;;;141.45;85.60;;;;;;;;;;5082398;28;20449;-65
2022/03/19 07:20:16;;;;;;;247.75;104.35;;;;;;;;;;5072101;28;20027;-65
2022/03/19 07:23:07;;;;;;;212.15;93.70;;;;;;;;;;5074747;28;20427;-68
2022/03/19 07:25:37;;;;;;;179.57;70.90;;;;;;;;;;5079087;28;20044;-67
2022/03/19 07:28:06;;;;;;;88.43;53.97;;;;;;;;;;5083638;28;20123;-64
2022/03/19 07:30:32;;;;;;;90.90;53.60;;;;;;;;;;5085061;28;20734;-66
2022/03/19 07:32:58;;;;;;;102.93;60.45;;;;;;;;;;5085139;28;20032;-65
2022/03/19 07:35:23;;;;;;;127.25;71.70;;;;;;;;;;5083020;28;20347;-66
2022/03/19 07:37:49;;;;;;;109.18;65.65;;;;;;;;;;5083201;28;20028;-65
2022/03/19 07:40:15;;;;;;;72.78;48.38;;;;;;;;;;5071533;28;20026;-66
2022/03/19 07:42:41;;;;;;;234.75;98.30;;;;;;;;;;5073748;28;20035;-67
2022/03/19 07:45:07;;;;;;;132.27;70.47;;;;;;;;;;5079858;28;21037;-65
2022/03/19 07:47:34;;;;;;;83.07;52.80;;;;;;;;;;5073532;28;20059;-65
2022/03/19 07:49:59;;;;;;;87.20;57.17;;;;;;;;;;5070480;28;20036;-68
2022/03/19 07:52:25;;;;;;;173.68;121.53;;;;;;;;;;5072957;28;20335;-68
2022/03/19 07:54:54;;;;;;;175.05;84.85;;;;;;;;;;5072173;28;20369;-68
2022/03/19 07:57:21;;;;;;;88.22;55.25;;;;;;;;;;5069550;28;20030;-68
2022/03/19 07:59:46;;;;;;;53.15;38.10;;;;;;;;;;5071511;28;20085;-68
2022/03/19 08:02:12;;;;;;;42.38;30.63;;;;;;;;;;5074744;28;20032;-68
2022/03/19 08:04:37;;;;;;;34.45;24.20;;;;;;;;;;5073643;28;20449;-66
2022/03/19 08:07:03;;;;;;;51.75;35.03;;;;;;;;;;5073913;28;20020;-71
2022/03/19 08:09:28;;;;;;;30.35;22.88;;;;;;;;;;5077257;28;20482;-67
2022/03/19 08:11:53;;;;;;;40.25;31.25;;;;;;;;;;5078675;28;20024;-67
2022/03/19 08:14:19;;;;;;;36.45;28.10;;;;;;;;;;5069628;28;20044;-69
2022/03/19 08:16:46;;;;;;;35.15;30.67;;;;;;;;;;5078785;28;20431;-69
2022/03/19 08:19:11;;;;;;;34.42;25.58;;;;;;;;;;5085481;28;20027;-69
2022/03/19 08:21:38;;;;;;;34.80;25.60;;;;;;;;;;5086921;28;20024;-69
2022/03/19 08:24:04;;;;;;;36.10;26.40;;;;;;;;;;5086438;28;20382;-70
2022/03/19 08:26:29;;;;;;;43.35;34.88;;;;;;;;;;5082552;28;20028;-71
2022/03/19 08:28:55;;;;;;;67.25;47.08;;;;;;;;;;5079619;28;20024;-68
2022/03/19 08:31:20;;;;;;;47.53;31.13;;;;;;;;;;5080328;28;20466;-66
2022/03/19 08:33:45;;;;;;;57.72;33.83;;;;;;;;;;5085656;28;20184;-66
2022/03/19 08:36:11;;;;;;;38.78;26.90;;;;;;;;;;5085262;28;20032;-66
2022/03/19 08:41:21;;;;;;;77.85;40.60;;;;;;;;;;5087670;28;20396;-69
2022/03/19 08:43:46;;;;;;;177.50;67.25;;;;;;;;;;5079386;28;20040;-70
2022/03/19 08:46:12;;;;;;;143.70;64.13;;;;;;;;;;5075072;28;20036;-69
2022/03/19 08:48:37;;;;;;;118.45;62.10;;;;;;;;;;5077543;28;20366;-70
2022/03/19 08:53:47;;;;;;;70.95;39.65;;;;;;;;;;5074403;28;20181;-71
2022/03/19 08:56:12;;;;;;;104.45;59.67;;;;;;;;;;5074917;28;20502;-71
2022/03/19 08:58:38;;;;;;;104.70;53.15;;;;;;;;;;5073945;28;20031;-72
2022/03/19 09:01:04;;;;;;;46.35;29.25;;;;;;;;;;5073877;28;20363;-71
2022/03/19 09:03:29;;;;;;;57.75;35.08;;;;;;;;;;5083251;28;20042;-70
2022/03/19 09:05:55;;;;;;;54.63;38.17;;;;;;;;;;5085537;27;20028;-72
2022/03/19 09:08:20;;;;;;;37.88;28.02;;;;;;;;;;5085270;28;20035;-71
2022/03/19 09:10:46;;;;;;;66.38;41.65;;;;;;;;;;5084467;28;20787;-72
2022/03/19 09:13:11;;;;;;;38.35;22.73;;;;;;;;;;5087197;28;20044;-71
2022/03/19 09:15:37;;;;;;;56.30;37.35;;;;;;;;;;5069042;28;20069;-73
2022/03/19 09:18:05;;;;;;;23.35;15.55;;;;;;;;;;5083425;28;20024;-73
2022/03/19 09:20:31;;;;;;;25.55;19.00;;;;;;;;;;5073962;28;20020;-73
2022/03/19 09:22:56;;;;;;;27.05;19.83;;;;;;;;;;5084504;28;20027;-73
2022/03/19 09:25:21;;;;;;;18.25;12.50;;;;;;;;;;5085321;28;20046;-73
2022/03/19 09:27:47;;;;;;;28.08;19.67;;;;;;;;;;5084716;28;20042;-72
2022/03/19 09:30:12;;;;;;;35.47;22.52;;;;;;;;;;5067891;28;20028;-73
2022/03/19 09:32:37;;;;;;;15.90;11.13;;;;;;;;;;5085234;28;20115;-72
2022/03/19 09:35:03;;;;;;;23.20;16.55;;;;;;;;;;5083730;28;20355;-74
2022/03/19 09:37:29;;;;;;;23.00;16.42;;;;;;;;;;5072273;28;20427;-72
2022/03/19 09:39:54;;;;;;;17.00;12.70;;;;;;;;;;5070427;28;20157;-71
2022/03/19 09:42:19;;;;;;;21.10;14.88;;;;;;;;;;5071461;28;20016;-71
2022/03/19 09:44:45;;;;;;;18.95;14.40;;;;;;;;;;5069793;28;20047;-70
2022/03/19 09:47:11;;;;;;;24.90;16.90;;;;;;;;;;5072493;28;20437;-71
2022/03/19 09:49:37;;;;;;;35.28;20.52;;;;;;;;;;5083649;28;20027;-71
2022/03/19 09:52:03;;;;;;;19.90;13.30;;;;;;;;;;5073214;28;20027;-71
2022/03/19 09:54:28;;;;;;;17.23;12.10;;;;;;;;;;5085536;28;20161;-70
2022/03/19 09:56:53;;;;;;;17.50;13.18;;;;;;;;;;5081012;28;20042;-70
2022/03/19 09:59:22;;;;;;;95.20;45.65;;;;;;;;;;5083471;28;20024;-70
2022/03/19 10:01:48;;;;;;;54.65;29.77;;;;;;;;;;5062102;28;20030;-71
2022/03/19 10:04:17;;;;;;;137.23;63.45;;;;;;;;;;5071560;28;20023;-72
2022/03/19 10:09:43;;;;;;;35.40;20.92;;;;;;;;;;5071205;28;20039;-71
2022/03/19 10:12:13;;;;;;;38.75;25.88;;;;;;;;;;5072336;28;20024;-71
2022/03/19 10:14:38;;;;;;;;;;;;;;;;;;5029093;28;1277197;-74
2022/03/19 10:17:04;;;;;;;32.67;24.77;;;;;;;;;;5078666;28;19943;-74
2022/03/19 10:19:29;;;;;;;16.73;11.65;;;;;;;;;;5075190;28;20039;-73
2022/03/19 10:22:04;;;;;;;16.35;11.75;;;;;;;;;;5071764;28;20031;-73
2022/03/19 10:24:29;;;;;;;62.15;31.58;;;;;;;;;;5074747;28;20024;-75
2022/03/19 10:26:55;;;;;;;24.90;17.02;;;;;;;;;;5072781;28;20432;-74
2022/03/19 10:29:27;;;;;;;13.02;9.15;;;;;;;;;;5073728;28;20331;-78
2022/03/19 10:31:59;;;;;;;15.40;10.02;;;;;;;;;;5076035;28;20024;-75
2022/03/19 10:34:24;;;;;;;27.58;16.77;;;;;;;;;;5074346;28;20028;-76
2022/03/19 10:36:49;;;;;;;16.00;10.32;;;;;;;;;;5071951;28;20427;-76
2022/03/19 10:39:22;;;;;;;17.60;12.65;;;;;;;;;;5074153;28;20063;-80
2022/03/19 10:41:48;;;;;;;20.60;14.60;;;;;;;;;;5084130;28;20089;-73
2022/03/19 10:44:17;;;;;;;24.10;15.57;;;;;;;;;;5075230;28;20031;-81
2022/03/19 10:46:46;;;;;;;12.80;9.80;;;;;;;;;;5084302;28;20035;-71
2022/03/19 10:49:12;;;;;;;12.23;9.05;;;;;;;;;;5072275;28;20032;-71
2022/03/19 10:51:39;;;;;;;19.02;11.88;;;;;;;;;;5073870;28;20016;-77
2022/03/19 10:54:05;;;;;;;18.35;11.88;;;;;;;;;;5073522;28;20035;-77
2022/03/19 10:56:30;;;;;;;18.55;11.27;;;;;;;;;;5073930;28;20024;-76
2022/03/19 10:58:55;;;;;;;32.10;18.80;;;;;;;;;;5073756;28;20031;-74
2022/03/19 11:01:21;;;;;;;27.05;19.27;;;;;;;;;;5074513;28;20039;-73
2022/03/19 11:03:48;;;;;;;24.35;16.10;;;;;;;;;;5079865;28;20028;-74
2022/03/19 11:06:13;;;;;;;27.30;17.00;;;;;;;;;;5074836;28;20019;-71
2022/03/19 11:08:43;;;;;;;24.05;17.02;;;;;;;;;;5081702;28;20023;-73
2022/03/19 11:11:14;;;;;;;47.67;24.02;;;;;;;;;;5084170;28;20028;-72
2022/03/19 11:13:42;;;;;;;43.88;23.10;;;;;;;;;;5083074;28;20368;-72
2022/03/19 11:16:08;;;;;;;46.83;28.02;;;;;;;;;;5087099;28;20031;-71
2022/03/19 11:18:34;;;;;;;38.42;24.88;;;;;;;;;;5085852;28;20012;-76
2022/03/19 11:21:02;;;;;;;35.17;21.33;;;;;;;;;;5081353;28;20454;-71
2022/03/19 11:23:31;;;;;;;37.67;23.35;;;;;;;;;;5075477;28;20036;-69
2022/03/19 11:25:57;;;;;;;25.13;15.30;;;;;;;;;;5077772;28;20039;-69
2022/03/19 11:28:23;;;;;;;23.92;16.30;;;;;;;;;;5078083;28;20032;-69
2022/03/19 11:30:59;;;;;;;24.67;18.08;;;;;;;;;;5076686;28;20065;-68
2022/03/19 11:33:27;;;;;;;33.25;19.85;;;;;;;;;;5078197;28;20428;-73
2022/03/19 11:35:58;;;;;;;20.75;13.15;;;;;;;;;;5061182;28;20024;-72
2022/03/19 11:38:24;;;;;;;25.50;18.02;;;;;;;;;;5078467;28;20023;-71
2022/03/19 11:40:54;;;;;;;19.45;13.52;;;;;;;;;;5073633;28;20016;-73
2022/03/19 11:43:33;;;;;;;33.78;21.33;;;;;;;;;;5083274;28;20114;-71
2022/03/19 11:46:02;;;;;;;23.90;17.88;;;;;;;;;;5078642;28;20031;-68
2022/03/19 11:48:47;;;;;;;24.25;15.93;;;;;;;;;;5077539;28;20089;-70
2022/03/19 11:51:18;;;;;;;25.33;16.17;;;;;;;;;;5080075;28;20118;-70
2022/03/19 11:53:59;;;;;;;33.30;22.80;;;;;;;;;;5083509;28;20115;-71
2022/03/19 11:56:48;;;;;;;24.85;15.38;;;;;;;;;;5085104;28;20024;-72
2022/03/19 11:59:13;;;;;;;30.83;17.53;;;;;;;;;;5070155;28;20471;-74
2022/03/19 12:01:50;;;;;;;21.20;14.15;;;;;;;;;;5067812;28;20140;-72
2022/03/19 12:04:18;;;;;;;30.20;16.90;;;;;;;;;;5083251;28;20141;-75
2022/03/19 12:06:51;;;;;;;16.90;10.95;;;;;;;;;;5078837;28;20122;-69
2022/03/19 12:09:16;;;;;;;29.55;19.92;;;;;;;;;;5078084;28;20040;-72
2022/03/19 12:12:02;;;;;;;17.33;11.80;;;;;;;;;;5081471;28;20035;-72
2022/03/19 12:14:27;;;;;;;13.82;10.07;;;;;;;;;;5086238;28;20047;-72
2022/03/19 12:16:53;;;;;;;18.00;10.18;;;;;;;;;;5084708;28;20465;-72
2022/03/19 12:19:38;;;;;;;24.67;13.07;;;;;;;;;;5080710;28;20426;-76
2022/03/19 12:22:03;;;;;;;30.52;17.00;;;;;;;;;;5073546;28;20028;-72
2022/03/19 12:24:34;;;;;;;21.23;14.57;;;;;;;;;;5068543;28;20035;-74
2022/03/19 12:27:08;;;;;;;35.85;19.23;;;;;;;;;;5075608;28;20040;-76
2022/03/19 12:29:36;;;;;;;21.52;13.57;;;;;;;;;;5072544;28;20024;-76
2022/03/19 12:32:04;;;;;;;24.08;14.73;;;;;;;;;;5076231;28;20092;-76
2022/03/19 12:34:30;;;;;;;30.13;17.80;;;;;;;;;;5078310;28;20031;-76
2022/03/19 12:37:02;;;;;;;36.25;20.38;;;;;;;;;;5074717;28;20374;-75
2022/03/19 12:39:28;;;;;;;25.13;15.05;;;;;;;;;;5072356;28;20036;-75
2022/03/19 12:41:53;;;;;;;22.65;14.05;;;;;;;;;;5074400;28;20043;-74
2022/03/19 12:44:21;;;;;;;65.53;35.00;;;;;;;;;;5077313;28;20032;-73
2022/03/19 12:46:51;;;;;;;28.23;16.10;;;;;;;;;;5072906;28;20157;-72
2022/03/19 12:49:17;;;;;;;27.60;16.42;;;;;;;;;;5076752;28;20460;-71
2022/03/19 12:51:45;;;;;;;16.95;12.18;;;;;;;;;;5083610;28;20020;-74
2022/03/19 12:54:17;;;;;;;38.38;19.42;;;;;;;;;;5085431;28;20309;-70
2022/03/19 12:56:43;;;;;;;16.15;10.93;;;;;;;;;;5081925;28;20707;-70
2022/03/19 12:59:14;;;;;;;15.68;11.55;;;;;;;;;;5078401;28;20031;-74
2022/03/19 13:01:41;;;;;;;19.15;12.88;;;;;;;;;;5077946;28;21892;-72
2022/03/19 13:04:06;;;;;;;25.73;17.33;;;;;;;;;;5082185;28;20074;-71
2022/03/19 13:06:41;;;;;;;26.80;16.95;;;;;;;;;;5067781;28;20076;-73
2022/03/19 13:09:08;;;;;;;15.20;12.23;;;;;;;;;;5086399;28;20051;-70
2022/03/19 13:11:41;;;;;;;19.88;13.55;;;;;;;;;;5088217;28;20039;-71
2022/03/19 13:14:07;;;;;;;19.40;13.02;;;;;;;;;;5085993;28;20164;-74
2022/03/19 13:16:32;;;;;;;40.35;19.42;;;;;;;;;;5087524;28;20388;-70
2022/03/19 13:19:00;;;;;;;24.42;16.95;;;;;;;;;;5085940;28;20082;-72
2022/03/19 13:21:26;;;;;;;13.60;10.38;;;;;;;;;;5085650;28;20032;-71
2022/03/19 13:23:52;;;;;;;12.88;9.30;;;;;;;;;;5087530;28;20441;-75
2022/03/19 13:26:18;;;;;;;31.73;18.05;;;;;;;;;;5086408;28;20058;-71
2022/03/19 13:29:04;;;;;;;27.70;17.75;;;;;;;;;;5085993;28;20119;-73
2022/03/19 13:31:34;;;;;;;34.72;17.92;;;;;;;;;;5080117;28;20035;-71
2022/03/19 13:34:00;;;;;;;;;;;;;;;;;;5088622;28;20028;-71
2022/03/19 13:36:26;;;;;;;73.47;29.95;;;;;;;;;;5085712;28;19923;-73
2022/03/19 13:39:00;;;;;;;35.65;18.88;;;;;;;;;;5086915;28;20020;-71
2022/03/19 13:41:25;;;;;;;29.25;16.02;;;;;;;;;;5085790;28;20102;-69
2022/03/19 13:43:51;;;;;;;37.28;20.55;;;;;;;;;;5081086;28;20115;-70
2022/03/19 13:46:17;;;;;;;24.67;14.80;;;;;;;;;;5081165;28;20028;-69
2022/03/19 13:48:43;;;;;;;22.73;12.48;;;;;;;;;;5078792;28;20027;-73
2022/03/19 13:51:09;;;;;;;17.58;11.27;;;;;;;;;;5086168;28;20492;-74
2022/03/19 13:53:46;;;;;;;25.73;14.55;;;;;;;;;;5086416;28;20032;-71
2022/03/19 13:56:12;;;;;;;23.52;14.07;;;;;;;;;;5087780;28;20039;-70
2022/03/19 13:58:38;;;;;;;27.77;15.77;;;;;;;;;;5074297;28;20028;-71
2022/03/19 14:01:14;;;;;;;15.52;11.25;;;;;;;;;;5073187;28;20426;-70
2022/03/19 14:03:40;;;;;;;21.70;14.25;;;;;;;;;;5072586;28;20132;-71
2022/03/19 14:06:09;;;;;;;39.13;27.30;;;;;;;;;;5077907;28;20036;-71
2022/03/19 14:08:36;;;;;;;54.70;34.67;;;;;;;;;;5075797;28;20109;-73
2022/03/19 14:11:09;;;;;;;32.25;21.77;;;;;;;;;;5084973;28;20056;-72
2022/03/19 14:13:38;;;;;;;23.73;16.33;;;;;;;;;;5084292;28;20327;-71
2022/03/19 14:16:11;;;;;;;23.67;14.07;;;;;;;;;;5059151;28;20506;-70
2022/03/19 14:18:37;;;;;;;30.95;17.98;;;;;;;;;;5072360;28;20583;-70
2022/03/19 14:21:04;;;;;;;35.10;21.42;;;;;;;;;;5073675;28;20031;-72
2022/03/19 14:23:34;;;;;;;23.98;15.40;;;;;;;;;;5071813;28;20024;-71
2022/03/19 14:25:59;;;;;;;;;;;;;;;;;;5080982;28;20067;-71